Horizon Trader — KIRH — position and weather

sailwx.info

Track history (hours):
 
Tides and Currents Weather Stations Pressure Air Temp Water Temp Dewpoint Dewpoint Depression Visibility Wind Speed Wind Dir Waves Ship Positions

Horizon Trader

Owner: HORIZON LINES LLC, RALEIGH, NC. More information available from US FCC via Universal Licensing System and Coast Guard Vessel Documentation Center.

Last reported at 2015-Jan-14 12:00 UTC. Time now 2015-May-26 09:27 UTC.
Position N 26°00' W 097°00'.
Warning: this ship's position is months out of date.

Type: Ship. MMSI: 366795000.

Wind from 350 at 30 knots

Barometer 1021.3 mb
Air temperature 8.3 ° C
Visibility: greater than 5.4 NM
Dewpoint 7.3 ° C

Date/timePositionNaut miles runAvg speedWind from/ knotsBaromVisibWave heightAir tempDewpointWater temp
2015-Jan-14 12:00N 26°00' W 097°00'0 0.0 350 / 301021.3 5.4 8.3 7.3
2015-Jan-14 00:00N 26°00' W 097°00'234 7.9 360 / 241023.1 2.2 10.6 8.3
2015-Jan-12 18:32N 29°23' W 094°48'1313.0
2015-Jan-12 17:33N 29°34' W 094°55'8 8.4
2015-Jan-12 16:34N 29°41' W 095°00'0 0.1
2015-Jan-12 15:31N 29°41' W 095°00'0 0.0
2015-Jan-12 14:31N 29°41' W 095°00'0 0.0
2015-Jan-12 13:31N 29°41' W 095°00'0 0.0
2015-Jan-12 12:31N 29°41' W 095°00'0 0.0
2015-Jan-12 11:31N 29°41' W 095°00'0 0.0
2015-Jan-12 10:31N 29°41' W 095°00'0 0.0
2015-Jan-12 09:31N 29°41' W 095°00'0 0.0
2015-Jan-12 08:31N 29°41' W 095°00'0 0.0
2015-Jan-12 07:31N 29°41' W 095°00'0 0.0
2015-Jan-12 06:31N 29°41' W 095°00'0 0.0
2015-Jan-12 05:31N 29°41' W 095°00'0 0.0
2015-Jan-12 04:31N 29°41' W 095°00'0 0.0
2015-Jan-12 03:31N 29°41' W 095°00'0 0.0
2015-Jan-12 02:31N 29°41' W 095°00'0 0.0
2015-Jan-12 01:31N 29°41' W 095°00'0 0.0
2015-Jan-12 00:31N 29°41' W 095°00'0 0.0
2015-Jan-11 23:31N 29°41' W 095°00'0 0.0
2015-Jan-11 22:31N 29°41' W 095°00'0 0.0
2015-Jan-11 21:31N 29°41' W 095°00'0 0.0
2015-Jan-11 20:31N 29°41' W 095°00'0 0.0
2015-Jan-11 19:31N 29°41' W 095°00'0 0.0
2015-Jan-11 18:31N 29°41' W 095°00'0 0.0
2015-Jan-11 17:31N 29°41' W 095°00'0 0.0
2015-Jan-11 16:31N 29°41' W 095°00'0 0.0
2015-Jan-11 15:31N 29°41' W 095°00'0 0.0
2015-Jan-11 14:31N 29°41' W 095°00'0 0.0
2015-Jan-11 13:31N 29°41' W 095°00'0 0.4
2015-Jan-11 12:33N 29°41' W 094°60'8 8.0
2015-Jan-11 11:34N 29°34' W 094°55'19416.8
2015-Jan-11 00:00N 27°36' W 092°00'38516.1 080 / 241022.910.8 17.814.2
2015-Jan-10 00:00N 25°06' W 085°24'13711.4 030 / 191022.010.8 20.014.725.6
2015-Jan-09 12:00N 24°12' W 083°06'18816.0 030 / 191019.910.8 20.617.126.7
2015-Jan-09 00:12N 25°33' W 079°59'2112.5
2015-Jan-08 22:33N 25°54' W 079°57'9 8.7
2015-Jan-08 21:33N 26°02' W 079°56'9 8.8
2015-Jan-08 20:33N 26°11' W 079°56'9 9.1
2015-Jan-08 19:33N 26°20' W 079°55'1717.3
2015-Jan-08 18:33N 26°37' W 079°53'1210.8
2015-Jan-08 17:29N 26°49' W 079°52'8 8.4
2015-Jan-08 16:33N 26°57' W 079°51'1010.3
2015-Jan-08 15:33N 27°07' W 079°51'5916.6
2015-Jan-08 12:00N 28°06' W 079°48'   350 / 301023.510.8 16.1 9.1
2015-Jan-05 17:00N 27°36' W 076°54'11222.4 230 / 91024.610.8 28.923.525.6
2015-Jan-05 12:00N 26°24' W 075°18'24220.1 130 / 131024.410.8 23.920.727.8
2015-Jan-05 00:00N 23°42' W 072°00'24920.7 090 / 191023.910.8 24.421.328.3
2015-Jan-04 12:00N 20°48' W 068°48'   070 / 241021.210.8 25.619.928.3
Track history (hours):
 
Tides and Currents Weather Stations Pressure Air Temp Water Temp Dewpoint Dewpoint Depression Visibility Wind Speed Wind Dir Waves Ship Positions

Horizon Trader

Owner: HORIZON LINES LLC, RALEIGH, NC. More information available from US FCC via Universal Licensing System and Coast Guard Vessel Documentation Center.

Last reported at 2015-Jan-14 12:00 UTC. Time now 2015-May-26 09:27 UTC.
Position N 26°00' W 097°00'.
Warning: this ship's position is months out of date.

Type: Ship. MMSI: 366795000.

Wind from 350 at 30 knots

Barometer 1021.3 mb
Air temperature 8.3 ° C
Visibility: greater than 5.4 NM
Dewpoint 7.3 ° C

Date/timePositionNaut miles runAvg speedWind from/ knotsBaromVisibWave heightAir tempDewpointWater temp
2015-Jan-14 12:00N 26°00' W 097°00'0 0.0 350 / 301021.3 5.4 8.3 7.3
2015-Jan-14 00:00N 26°00' W 097°00'234 7.9 360 / 241023.1 2.2 10.6 8.3
2015-Jan-12 18:32N 29°23' W 094°48'1313.0
2015-Jan-12 17:33N 29°34' W 094°55'8 8.4
2015-Jan-12 16:34N 29°41' W 095°00'0 0.1
2015-Jan-12 15:31N 29°41' W 095°00'0 0.0
2015-Jan-12 14:31N 29°41' W 095°00'0 0.0
2015-Jan-12 13:31N 29°41' W 095°00'0 0.0
2015-Jan-12 12:31N 29°41' W 095°00'0 0.0
2015-Jan-12 11:31N 29°41' W 095°00'0 0.0
2015-Jan-12 10:31N 29°41' W 095°00'0 0.0
2015-Jan-12 09:31N 29°41' W 095°00'0 0.0
2015-Jan-12 08:31N 29°41' W 095°00'0 0.0
2015-Jan-12 07:31N 29°41' W 095°00'0 0.0
2015-Jan-12 06:31N 29°41' W 095°00'0 0.0
2015-Jan-12 05:31N 29°41' W 095°00'0 0.0
2015-Jan-12 04:31N 29°41' W 095°00'0 0.0
2015-Jan-12 03:31N 29°41' W 095°00'0 0.0
2015-Jan-12 02:31N 29°41' W 095°00'0 0.0
2015-Jan-12 01:31N 29°41' W 095°00'0 0.0
2015-Jan-12 00:31N 29°41' W 095°00'0 0.0
2015-Jan-11 23:31N 29°41' W 095°00'0 0.0
2015-Jan-11 22:31N 29°41' W 095°00'0 0.0
2015-Jan-11 21:31N 29°41' W 095°00'0 0.0
2015-Jan-11 20:31N 29°41' W 095°00'0 0.0
2015-Jan-11 19:31N 29°41' W 095°00'0 0.0
2015-Jan-11 18:31N 29°41' W 095°00'0 0.0
2015-Jan-11 17:31N 29°41' W 095°00'0 0.0
2015-Jan-11 16:31N 29°41' W 095°00'0 0.0
2015-Jan-11 15:31N 29°41' W 095°00'0 0.0
2015-Jan-11 14:31N 29°41' W 095°00'0 0.0
2015-Jan-11 13:31N 29°41' W 095°00'0 0.4
2015-Jan-11 12:33N 29°41' W 094°60'8 8.0
2015-Jan-11 11:34N 29°34' W 094°55'19416.8
2015-Jan-11 00:00N 27°36' W 092°00'38516.1 080 / 241022.910.8 17.814.2
2015-Jan-10 00:00N 25°06' W 085°24'13711.4 030 / 191022.010.8 20.014.725.6
2015-Jan-09 12:00N 24°12' W 083°06'18816.0 030 / 191019.910.8 20.617.126.7
2015-Jan-09 00:12N 25°33' W 079°59'2112.5
2015-Jan-08 22:33N 25°54' W 079°57'9 8.7
2015-Jan-08 21:33N 26°02' W 079°56'9 8.8
2015-Jan-08 20:33N 26°11' W 079°56'9 9.1
2015-Jan-08 19:33N 26°20' W 079°55'1717.3
2015-Jan-08 18:33N 26°37' W 079°53'1210.8
2015-Jan-08 17:29N 26°49' W 079°52'8 8.4
2015-Jan-08 16:33N 26°57' W 079°51'1010.3
2015-Jan-08 15:33N 27°07' W 079°51'5916.6
2015-Jan-08 12:00N 28°06' W 079°48'   350 / 301023.510.8 16.1 9.1
2015-Jan-05 17:00N 27°36' W 076°54'11222.4 230 / 91024.610.8 28.923.525.6
2015-Jan-05 12:00N 26°24' W 075°18'24220.1 130 / 131024.410.8 23.920.727.8
2015-Jan-05 00:00N 23°42' W 072°00'24920.7 090 / 191023.910.8 24.421.328.3
2015-Jan-04 12:00N 20°48' W 068°48'   070 / 241021.210.8 25.619.928.3

Dump ship's entire track history